SXS651 LTAI-LBSF
Flight info
| Callsign | SXS651 |
|---|---|
| Flight time | 1h 30m |
| Altitude | 38000 |
| Route | EKNUD UQ26 BKZ UL615 VADEN Y520 GOL |
| Aircraft | B738/M-SDE2E3FGHIRWXY/LB1 |
Departure
| Time | 2026-05-06 07:10 |
|---|---|
| Airport | Antalya International Airport (LTAI) |
Arrival
| Time | 2026-05-06 08:40 |
|---|---|
| Airport | Sofia Airport (LBSF) |
| Time | Latitude | Longitude | Altitude | Speed | Heading |
|---|---|---|---|---|---|
| 2026-05-06 06:21 | 36.89015 | 30.79832 | 202 ft | 0 kts | 276° |
| 2026-05-06 06:40 | 36.88989 | 30.80061 | 1466 ft | 0 kts | 277° |
| 2026-05-06 06:40 | 36.89002 | 30.79943 | 192 ft | 0 kts | 277° |
| 2026-05-06 06:40 | 36.89016 | 30.79827 | 189 ft | 0 kts | 274° |
| 2026-05-06 06:49 | 36.89015 | 30.79832 | 191 ft | 4 kts | 276° |
| 2026-05-06 07:01 | 36.89013 | 30.79853 | 191 ft | 6 kts | 276° |
| 2026-05-06 07:02 | 36.89034 | 30.79892 | 202 ft | 2 kts | 191° |
| 2026-05-06 07:02 | 36.89035 | 30.79893 | 202 ft | 0 kts | 189° |
| 2026-05-06 07:03 | 36.89020 | 30.79891 | 204 ft | 5 kts | 184° |
| 2026-05-06 07:04 | 36.88979 | 30.79886 | 195 ft | 7 kts | 186° |
| 2026-05-06 07:04 | 36.88921 | 30.79878 | 198 ft | 9 kts | 186° |
| 2026-05-06 07:04 | 36.88857 | 30.79894 | 191 ft | 11 kts | 119° |
| 2026-05-06 07:04 | 36.88844 | 30.79987 | 191 ft | 12 kts | 96° |
| 2026-05-06 07:05 | 36.88833 | 30.80106 | 191 ft | 15 kts | 96° |
| 2026-05-06 07:05 | 36.88823 | 30.80231 | 191 ft | 14 kts | 96° |
| 2026-05-06 07:05 | 36.88810 | 30.80379 | 191 ft | 19 kts | 96° |
| 2026-05-06 07:05 | 36.88792 | 30.80545 | 192 ft | 19 kts | 112° |
| 2026-05-06 07:06 | 36.88673 | 30.80568 | 197 ft | 19 kts | 187° |
| 2026-05-06 07:06 | 36.88548 | 30.80550 | 204 ft | 18 kts | 186° |
| 2026-05-06 07:06 | 36.88426 | 30.80534 | 192 ft | 17 kts | 186° |
| 2026-05-06 07:06 | 36.88305 | 30.80518 | 195 ft | 19 kts | 186° |
| 2026-05-06 07:07 | 36.88177 | 30.80504 | 191 ft | 18 kts | 171° |
| 2026-05-06 07:07 | 36.88136 | 30.80598 | 194 ft | 8 kts | 96° |
| 2026-05-06 07:07 | 36.88135 | 30.80610 | 196 ft | 0 kts | 95° |
| 2026-05-06 07:07 | 36.88135 | 30.80611 | 196 ft | 1 kts | 95° |
| 2026-05-06 07:08 | 36.88135 | 30.80614 | 195 ft | 0 kts | 95° |
| 2026-05-06 07:08 | 36.88135 | 30.80621 | 190 ft | 2 kts | 95° |
| 2026-05-06 07:08 | 36.88132 | 30.80646 | 195 ft | 4 kts | 96° |
| 2026-05-06 07:08 | 36.88131 | 30.80691 | 189 ft | 6 kts | 82° |
| 2026-05-06 07:09 | 36.88173 | 30.80734 | 194 ft | 12 kts | 14° |
| 2026-05-06 07:09 | 36.88454 | 30.80775 | 195 ft | 79 kts | 6° |
| 2026-05-06 07:09 | 36.89244 | 30.80882 | 202 ft | 147 kts | 5° |
| 2026-05-06 07:09 | 36.90373 | 30.81037 | 624 ft | 173 kts | 5° |
| 2026-05-06 07:10 | 36.91643 | 30.81258 | 1273 ft | 193 kts | 9° |
| 2026-05-06 07:10 | 36.92915 | 30.81933 | 1867 ft | 213 kts | 37° |
| 2026-05-06 07:10 | 36.94128 | 30.82948 | 2580 ft | 208 kts | 17° |
| 2026-05-06 07:10 | 36.95505 | 30.83417 | 3111 ft | 211 kts | 16° |
| 2026-05-06 07:11 | 36.96896 | 30.84034 | 3739 ft | 212 kts | 19° |
| 2026-05-06 07:11 | 36.98284 | 30.84684 | 4341 ft | 216 kts | 19° |
| 2026-05-06 07:11 | 36.99720 | 30.85352 | 4777 ft | 229 kts | 19° |
| 2026-05-06 07:11 | 37.01254 | 30.86079 | 5140 ft | 241 kts | 20° |
| 2026-05-06 07:12 | 37.02834 | 30.86840 | 5669 ft | 244 kts | 19° |
| 2026-05-06 07:12 | 37.04412 | 30.87604 | 6177 ft | 248 kts | 19° |
| 2026-05-06 07:12 | 37.06031 | 30.88390 | 6726 ft | 251 kts | 20° |
| 2026-05-06 07:12 | 37.07709 | 30.88898 | 7273 ft | 250 kts | 358° |
| 2026-05-06 07:13 | 37.09422 | 30.88556 | 7834 ft | 250 kts | 348° |
| 2026-05-06 07:13 | 37.11122 | 30.88119 | 8408 ft | 249 kts | 348° |
| 2026-05-06 07:13 | 37.12813 | 30.87684 | 9026 ft | 246 kts | 347° |
| 2026-05-06 07:13 | 37.14504 | 30.87250 | 9535 ft | 249 kts | 348° |
| 2026-05-06 07:14 | 37.16161 | 30.86828 | 9905 ft | 253 kts | 348° |
| 2026-05-06 07:14 | 37.17943 | 30.86377 | 9959 ft | 252 kts | 348° |
| 2026-05-06 07:14 | 37.19677 | 30.85940 | 9992 ft | 254 kts | 347° |
| 2026-05-06 07:14 | 37.21409 | 30.85503 | 9991 ft | 256 kts | 348° |
| 2026-05-06 07:15 | 37.23141 | 30.85066 | 9982 ft | 262 kts | 348° |
| 2026-05-06 07:15 | 37.24991 | 30.84600 | 9978 ft | 275 kts | 348° |
| 2026-05-06 07:15 | 37.26874 | 30.84125 | 9994 ft | 277 kts | 348° |
| 2026-05-06 07:15 | 37.28778 | 30.83647 | 9999 ft | 280 kts | 348° |
| 2026-05-06 07:16 | 37.30695 | 30.83165 | 10005 ft | 281 kts | 348° |
| 2026-05-06 07:16 | 37.32611 | 30.82683 | 10002 ft | 280 kts | 348° |
| 2026-05-06 07:16 | 37.34516 | 30.82202 | 10001 ft | 278 kts | 347° |
| 2026-05-06 07:16 | 37.36408 | 30.81720 | 10000 ft | 276 kts | 348° |
| 2026-05-06 07:17 | 37.38297 | 30.81241 | 10004 ft | 276 kts | 348° |
| 2026-05-06 07:17 | 37.40181 | 30.80763 | 9983 ft | 276 kts | 348° |
| 2026-05-06 07:17 | 37.42060 | 30.80288 | 10001 ft | 276 kts | 348° |
| 2026-05-06 07:17 | 37.43980 | 30.80120 | 10002 ft | 278 kts | 1° |
| 2026-05-06 07:18 | 37.45912 | 30.80244 | 10003 ft | 278 kts | 1° |
| 2026-05-06 07:18 | 37.47849 | 30.80341 | 10001 ft | 279 kts | 1° |
| 2026-05-06 07:18 | 37.49795 | 30.80423 | 10006 ft | 281 kts | 1° |
| 2026-05-06 07:18 | 37.51746 | 30.80511 | 10305 ft | 291 kts | 1° |
| 2026-05-06 07:19 | 37.53860 | 30.80609 | 10454 ft | 315 kts | 1° |
| 2026-05-06 07:19 | 37.56135 | 30.80715 | 10619 ft | 338 kts | 1° |
| 2026-05-06 07:19 | 37.58548 | 30.80827 | 10922 ft | 353 kts | 1° |
| 2026-05-06 07:19 | 37.61034 | 30.80942 | 11508 ft | 359 kts | 1° |
| 2026-05-06 07:20 | 37.63541 | 30.81057 | 12248 ft | 360 kts | 1° |
| 2026-05-06 07:20 | 37.66027 | 30.81171 | 12981 ft | 363 kts | 1° |
| 2026-05-06 07:20 | 37.68600 | 30.81287 | 13716 ft | 367 kts | 1° |
| 2026-05-06 07:20 | 37.71157 | 30.81404 | 14405 ft | 369 kts | 1° |
| 2026-05-06 07:21 | 37.73707 | 30.81519 | 15052 ft | 373 kts | 1° |
| 2026-05-06 07:21 | 37.76312 | 30.81637 | 15720 ft | 375 kts | 1° |
| 2026-05-06 07:21 | 37.78943 | 30.81751 | 16391 ft | 379 kts | 0° |
| 2026-05-06 07:21 | 37.81591 | 30.81754 | 17035 ft | 382 kts | 358° |
| 2026-05-06 07:22 | 37.84265 | 30.81682 | 17689 ft | 385 kts | 358° |
| 2026-05-06 07:22 | 37.86963 | 30.81593 | 18356 ft | 389 kts | 358° |
| 2026-05-06 07:22 | 37.89675 | 30.81510 | 18911 ft | 392 kts | 358° |
| 2026-05-06 07:22 | 37.92418 | 30.81436 | 19467 ft | 395 kts | 358° |
| 2026-05-06 07:23 | 37.95176 | 30.81370 | 20015 ft | 398 kts | 358° |
| 2026-05-06 07:23 | 37.97922 | 30.81310 | 20564 ft | 401 kts | 358° |
| 2026-05-06 07:23 | 38.00725 | 30.81252 | 21106 ft | 403 kts | 358° |
| 2026-05-06 07:23 | 38.03540 | 30.81194 | 21630 ft | 406 kts | 358° |
| 2026-05-06 07:24 | 38.06382 | 30.81135 | 22133 ft | 409 kts | 357° |
| 2026-05-06 07:24 | 38.09239 | 30.81076 | 22628 ft | 412 kts | 357° |
| 2026-05-06 07:24 | 38.11146 | 30.81036 | 22957 ft | 414 kts | 357° |
| 2026-05-06 07:24 | 38.14036 | 30.80934 | 23471 ft | 416 kts | 354° |
| 2026-05-06 07:25 | 38.16923 | 30.80573 | 23907 ft | 418 kts | 351° |
| 2026-05-06 07:25 | 38.20759 | 30.79894 | 24434 ft | 421 kts | 350° |
| 2026-05-06 07:25 | 38.23665 | 30.79347 | 24833 ft | 424 kts | 350° |
| 2026-05-06 07:25 | 38.25643 | 30.78980 | 25099 ft | 425 kts | 350° |
| 2026-05-06 07:26 | 38.28581 | 30.78453 | 25478 ft | 427 kts | 351° |
| 2026-05-06 07:26 | 38.31535 | 30.77940 | 25857 ft | 430 kts | 351° |
| 2026-05-06 07:26 | 38.34468 | 30.77444 | 26218 ft | 432 kts | 351° |
| 2026-05-06 07:26 | 38.37455 | 30.76947 | 26588 ft | 434 kts | 351° |
| 2026-05-06 07:27 | 38.40459 | 30.76450 | 26957 ft | 436 kts | 351° |
| 2026-05-06 07:27 | 38.43475 | 30.75952 | 27291 ft | 438 kts | 351° |
| 2026-05-06 07:27 | 38.46508 | 30.75451 | 27627 ft | 440 kts | 351° |
| 2026-05-06 07:27 | 38.49542 | 30.74948 | 27954 ft | 443 kts | 351° |
| 2026-05-06 07:28 | 38.52606 | 30.74440 | 28280 ft | 445 kts | 351° |
| 2026-05-06 07:28 | 38.55687 | 30.73928 | 28587 ft | 447 kts | 351° |
| 2026-05-06 07:28 | 38.61866 | 30.72900 | 29433 ft | 446 kts | 351° |
| 2026-05-06 07:29 | 38.64934 | 30.72389 | 29962 ft | 443 kts | 351° |
| 2026-05-06 07:29 | 38.67986 | 30.71881 | 30395 ft | 442 kts | 351° |
| 2026-05-06 07:29 | 38.71030 | 30.71372 | 30723 ft | 442 kts | 351° |
| 2026-05-06 07:29 | 38.74080 | 30.70862 | 31044 ft | 442 kts | 351° |
| 2026-05-06 07:30 | 38.77133 | 30.70352 | 31429 ft | 440 kts | 351° |
| 2026-05-06 07:30 | 38.80173 | 30.69843 | 31823 ft | 439 kts | 351° |
| 2026-05-06 07:30 | 38.83157 | 30.69303 | 32155 ft | 438 kts | 347° |
| 2026-05-06 07:30 | 38.86094 | 30.68310 | 32448 ft | 437 kts | 339° |
| 2026-05-06 07:31 | 38.88875 | 30.66762 | 32794 ft | 435 kts | 332° |
| 2026-05-06 07:31 | 38.91563 | 30.64991 | 33160 ft | 434 kts | 332° |
| 2026-05-06 07:31 | 38.94248 | 30.63205 | 33484 ft | 433 kts | 332° |
| 2026-05-06 07:31 | 38.96911 | 30.61436 | 33804 ft | 433 kts | 332° |
| 2026-05-06 07:32 | 38.99587 | 30.59670 | 34177 ft | 432 kts | 332° |
| 2026-05-06 07:32 | 39.02254 | 30.57918 | 34495 ft | 430 kts | 332° |
| 2026-05-06 07:32 | 39.04922 | 30.56171 | 34737 ft | 430 kts | 332° |
| 2026-05-06 07:32 | 39.07600 | 30.54421 | 34958 ft | 431 kts | 332° |
| 2026-05-06 07:33 | 39.10272 | 30.52675 | 35211 ft | 431 kts | 332° |
| 2026-05-06 07:33 | 39.12943 | 30.50929 | 35485 ft | 430 kts | 332° |
| 2026-05-06 07:33 | 39.15616 | 30.49180 | 35732 ft | 430 kts | 332° |
| 2026-05-06 07:33 | 39.18281 | 30.47434 | 35964 ft | 430 kts | 332° |
| 2026-05-06 07:34 | 39.20949 | 30.45685 | 36208 ft | 430 kts | 332° |
| 2026-05-06 07:34 | 39.23606 | 30.43941 | 36464 ft | 429 kts | 332° |
| 2026-05-06 07:34 | 39.26273 | 30.42189 | 36697 ft | 429 kts | 332° |
| 2026-05-06 07:34 | 39.28936 | 30.40439 | 36915 ft | 429 kts | 332° |
| 2026-05-06 07:35 | 39.31599 | 30.38686 | 37121 ft | 430 kts | 332° |
| 2026-05-06 07:35 | 39.34268 | 30.36928 | 37303 ft | 431 kts | 332° |
| 2026-05-06 07:35 | 39.36938 | 30.35168 | 37479 ft | 431 kts | 332° |
| 2026-05-06 07:35 | 39.39609 | 30.33406 | 37713 ft | 431 kts | 332° |
| 2026-05-06 07:36 | 39.42278 | 30.31643 | 37946 ft | 430 kts | 332° |
| 2026-05-06 07:36 | 39.44940 | 30.29884 | 38112 ft | 431 kts | 332° |
| 2026-05-06 07:36 | 39.50311 | 30.26356 | 38108 ft | 433 kts | 334° |
| 2026-05-06 07:37 | 39.55839 | 30.23325 | 38104 ft | 429 kts | 337° |
| 2026-05-06 07:37 | 39.61334 | 30.20470 | 38105 ft | 427 kts | 337° |
| 2026-05-06 07:38 | 39.66830 | 30.17573 | 38099 ft | 424 kts | 336° |
| 2026-05-06 07:38 | 39.72293 | 30.14657 | 38109 ft | 423 kts | 336° |
| 2026-05-06 07:39 | 39.77748 | 30.11731 | 38104 ft | 423 kts | 336° |
| 2026-05-06 07:39 | 39.83180 | 30.08813 | 38107 ft | 425 kts | 336° |
| 2026-05-06 07:40 | 39.88667 | 30.05862 | 38110 ft | 427 kts | 336° |
| 2026-05-06 07:40 | 39.94176 | 30.02894 | 38111 ft | 430 kts | 336° |
| 2026-05-06 07:41 | 39.99650 | 29.99938 | 38105 ft | 432 kts | 336° |
| 2026-05-06 07:41 | 40.05133 | 29.96970 | 38107 ft | 434 kts | 336° |
| 2026-05-06 07:42 | 40.10725 | 29.93937 | 38097 ft | 435 kts | 336° |
| 2026-05-06 07:42 | 40.16331 | 29.90890 | 38114 ft | 436 kts | 337° |
| 2026-05-06 07:43 | 40.21927 | 29.87844 | 38090 ft | 435 kts | 337° |
| 2026-05-06 07:43 | 40.27525 | 29.84791 | 38101 ft | 434 kts | 336° |
| 2026-05-06 07:44 | 40.33059 | 29.81767 | 38095 ft | 433 kts | 336° |
| 2026-05-06 07:44 | 40.38610 | 29.78729 | 38109 ft | 432 kts | 337° |
| 2026-05-06 07:45 | 40.44159 | 29.75687 | 38088 ft | 431 kts | 337° |
| 2026-05-06 07:45 | 40.49689 | 29.72649 | 38088 ft | 430 kts | 337° |
| 2026-05-06 07:46 | 40.55206 | 29.69613 | 38106 ft | 430 kts | 337° |
| 2026-05-06 07:46 | 40.60720 | 29.66573 | 38104 ft | 429 kts | 336° |
| 2026-05-06 07:47 | 40.66159 | 29.63349 | 38084 ft | 429 kts | 329° |
| 2026-05-06 07:47 | 40.70915 | 29.58700 | 38099 ft | 429 kts | 321° |
| 2026-05-06 07:48 | 40.75554 | 29.53732 | 38094 ft | 429 kts | 321° |
| 2026-05-06 07:48 | 40.80196 | 29.48795 | 38104 ft | 429 kts | 322° |
| 2026-05-06 07:49 | 40.84868 | 29.43857 | 38107 ft | 430 kts | 322° |
| 2026-05-06 07:49 | 40.89516 | 29.38944 | 38103 ft | 431 kts | 322° |
| 2026-05-06 07:50 | 40.94220 | 29.33964 | 38109 ft | 432 kts | 322° |
| 2026-05-06 07:50 | 40.98885 | 29.29015 | 38103 ft | 432 kts | 321° |
| 2026-05-06 07:51 | 41.03578 | 29.24026 | 38096 ft | 433 kts | 321° |
| 2026-05-06 07:51 | 41.08290 | 29.19008 | 38109 ft | 434 kts | 321° |
| 2026-05-06 07:52 | 41.12810 | 29.13785 | 38097 ft | 435 kts | 313° |
| 2026-05-06 07:52 | 41.16351 | 29.07259 | 38110 ft | 436 kts | 304° |
| 2026-05-06 07:53 | 41.19665 | 29.00503 | 38105 ft | 437 kts | 304° |
| 2026-05-06 07:53 | 41.22956 | 28.93843 | 38101 ft | 437 kts | 304° |
| 2026-05-06 07:54 | 41.26308 | 28.87104 | 38104 ft | 437 kts | 304° |
| 2026-05-06 07:54 | 41.29665 | 28.80361 | 38106 ft | 437 kts | 304° |
| 2026-05-06 07:55 | 41.33016 | 28.73615 | 38100 ft | 437 kts | 304° |
| 2026-05-06 07:55 | 41.36341 | 28.66906 | 38102 ft | 436 kts | 304° |
| 2026-05-06 07:56 | 41.39671 | 28.60168 | 38100 ft | 434 kts | 304° |
| 2026-05-06 07:56 | 41.42985 | 28.53451 | 38099 ft | 433 kts | 304° |
| 2026-05-06 07:57 | 41.46289 | 28.46738 | 38093 ft | 432 kts | 304° |
| 2026-05-06 07:57 | 41.49581 | 28.40036 | 38090 ft | 431 kts | 304° |
| 2026-05-06 07:58 | 41.52842 | 28.33387 | 38093 ft | 430 kts | 304° |
| 2026-05-06 07:58 | 41.56116 | 28.26696 | 38092 ft | 430 kts | 304° |
| 2026-05-06 07:59 | 41.59379 | 28.20014 | 38078 ft | 430 kts | 304° |
| 2026-05-06 07:59 | 41.62640 | 28.13321 | 38090 ft | 430 kts | 304° |
| 2026-05-06 08:00 | 41.65883 | 28.06649 | 38097 ft | 430 kts | 304° |
| 2026-05-06 08:00 | 41.69138 | 27.99938 | 38089 ft | 431 kts | 304° |
| 2026-05-06 08:01 | 41.72372 | 27.93256 | 38083 ft | 432 kts | 304° |
| 2026-05-06 08:01 | 41.75634 | 27.86500 | 38082 ft | 432 kts | 304° |
| 2026-05-06 08:02 | 41.78880 | 27.79761 | 38081 ft | 433 kts | 304° |
| 2026-05-06 08:02 | 41.82156 | 27.72947 | 38079 ft | 434 kts | 304° |
| 2026-05-06 08:03 | 41.85422 | 27.66138 | 38072 ft | 434 kts | 304° |
| 2026-05-06 08:03 | 41.88687 | 27.59313 | 38065 ft | 434 kts | 304° |
| 2026-05-06 08:04 | 41.91923 | 27.52537 | 38068 ft | 434 kts | 304° |
| 2026-05-06 08:04 | 41.95170 | 27.45720 | 38051 ft | 434 kts | 304° |
| 2026-05-06 08:05 | 41.98416 | 27.38892 | 38066 ft | 433 kts | 304° |
| 2026-05-06 08:05 | 42.01650 | 27.32071 | 38069 ft | 433 kts | 304° |
| 2026-05-06 08:06 | 42.04885 | 27.25236 | 38071 ft | 432 kts | 304° |
| 2026-05-06 08:06 | 42.07917 | 27.18282 | 38065 ft | 433 kts | 298° |
| 2026-05-06 08:07 | 42.10488 | 27.10927 | 38063 ft | 434 kts | 297° |
| 2026-05-06 08:07 | 42.13061 | 27.03561 | 38066 ft | 434 kts | 297° |
| 2026-05-06 08:08 | 42.15636 | 26.96339 | 38061 ft | 434 kts | 298° |
| 2026-05-06 08:08 | 42.18248 | 26.89052 | 38064 ft | 433 kts | 298° |
| 2026-05-06 08:09 | 42.20881 | 26.81720 | 38067 ft | 433 kts | 298° |
| 2026-05-06 08:09 | 42.23502 | 26.74401 | 38072 ft | 433 kts | 298° |
| 2026-05-06 08:10 | 42.26100 | 26.67120 | 38069 ft | 433 kts | 298° |
| 2026-05-06 08:10 | 42.28712 | 26.59775 | 38074 ft | 433 kts | 298° |
| 2026-05-06 08:11 | 42.31322 | 26.52420 | 37829 ft | 436 kts | 298° |
| 2026-05-06 08:11 | 42.32616 | 26.48767 | 37406 ft | 436 kts | 298° |
| 2026-05-06 08:11 | 42.33936 | 26.45033 | 37005 ft | 432 kts | 298° |
| 2026-05-06 08:12 | 42.35209 | 26.41427 | 36616 ft | 428 kts | 298° |
| 2026-05-06 08:12 | 42.36489 | 26.37798 | 36235 ft | 427 kts | 298° |
| 2026-05-06 08:12 | 42.37758 | 26.34196 | 35850 ft | 426 kts | 298° |
| 2026-05-06 08:12 | 42.39026 | 26.30590 | 35474 ft | 425 kts | 298° |
| 2026-05-06 08:13 | 42.40294 | 26.26983 | 35116 ft | 425 kts | 298° |
| 2026-05-06 08:13 | 42.41135 | 26.24588 | 34870 ft | 424 kts | 298° |
| 2026-05-06 08:13 | 42.42401 | 26.20977 | 34511 ft | 424 kts | 298° |
| 2026-05-06 08:13 | 42.43661 | 26.17379 | 34160 ft | 424 kts | 298° |
| 2026-05-06 08:14 | 42.44923 | 26.13769 | 33760 ft | 424 kts | 298° |
| 2026-05-06 08:14 | 42.46186 | 26.10153 | 33345 ft | 425 kts | 298° |
| 2026-05-06 08:14 | 42.47448 | 26.06535 | 32939 ft | 426 kts | 298° |
| 2026-05-06 08:14 | 42.48717 | 26.02895 | 32551 ft | 427 kts | 298° |
| 2026-05-06 08:15 | 42.49939 | 25.99383 | 32173 ft | 429 kts | 297° |
| 2026-05-06 08:15 | 42.51216 | 25.95705 | 31795 ft | 431 kts | 297° |
| 2026-05-06 08:15 | 42.52491 | 25.92024 | 31408 ft | 433 kts | 297° |
| 2026-05-06 08:15 | 42.53771 | 25.88324 | 31039 ft | 434 kts | 297° |
| 2026-05-06 08:16 | 42.55055 | 25.84606 | 30670 ft | 436 kts | 297° |
| 2026-05-06 08:16 | 42.56344 | 25.80869 | 30312 ft | 438 kts | 297° |
| 2026-05-06 08:16 | 42.57636 | 25.77117 | 29906 ft | 440 kts | 297° |
| 2026-05-06 08:16 | 42.58931 | 25.73351 | 29490 ft | 441 kts | 297° |
| 2026-05-06 08:17 | 42.60227 | 25.69577 | 29069 ft | 442 kts | 297° |
| 2026-05-06 08:17 | 42.61509 | 25.65838 | 28666 ft | 442 kts | 297° |
| 2026-05-06 08:17 | 42.62805 | 25.62054 | 28265 ft | 443 kts | 297° |
| 2026-05-06 08:17 | 42.64106 | 25.58251 | 27846 ft | 444 kts | 297° |
| 2026-05-06 08:18 | 42.65410 | 25.54433 | 27474 ft | 445 kts | 297° |
| 2026-05-06 08:18 | 42.66714 | 25.50611 | 27077 ft | 447 kts | 297° |
| 2026-05-06 08:18 | 42.68024 | 25.46765 | 26680 ft | 448 kts | 297° |
| 2026-05-06 08:18 | 42.69337 | 25.42906 | 26303 ft | 449 kts | 297° |
| 2026-05-06 08:19 | 42.70644 | 25.39057 | 25936 ft | 450 kts | 296° |
| 2026-05-06 08:19 | 42.71959 | 25.35181 | 25570 ft | 452 kts | 297° |
| 2026-05-06 08:19 | 42.73277 | 25.31291 | 25200 ft | 453 kts | 297° |
| 2026-05-06 08:19 | 42.74595 | 25.27395 | 24845 ft | 453 kts | 296° |
| 2026-05-06 08:20 | 42.75905 | 25.23515 | 24493 ft | 451 kts | 296° |
| 2026-05-06 08:20 | 42.77193 | 25.19693 | 24133 ft | 449 kts | 296° |
| 2026-05-06 08:20 | 42.78491 | 25.15839 | 23792 ft | 446 kts | 296° |
| 2026-05-06 08:20 | 42.79786 | 25.11988 | 23411 ft | 444 kts | 296° |
| 2026-05-06 08:21 | 42.81066 | 25.08178 | 23007 ft | 441 kts | 296° |
| 2026-05-06 08:21 | 42.82338 | 25.04383 | 22597 ft | 439 kts | 296° |
| 2026-05-06 08:21 | 42.83601 | 25.00613 | 22201 ft | 436 kts | 296° |
| 2026-05-06 08:21 | 42.84802 | 24.97023 | 21825 ft | 434 kts | 296° |
| 2026-05-06 08:22 | 42.86052 | 24.93281 | 21435 ft | 432 kts | 296° |
| 2026-05-06 08:22 | 42.87292 | 24.89564 | 21048 ft | 430 kts | 296° |
| 2026-05-06 08:22 | 42.88528 | 24.85855 | 20667 ft | 429 kts | 296° |
| 2026-05-06 08:22 | 42.89756 | 24.82163 | 20299 ft | 428 kts | 296° |
| 2026-05-06 08:23 | 42.90985 | 24.78464 | 19925 ft | 427 kts | 296° |
| 2026-05-06 08:23 | 42.92210 | 24.74771 | 19561 ft | 426 kts | 296° |
| 2026-05-06 08:23 | 42.93429 | 24.71089 | 19204 ft | 425 kts | 295° |
| 2026-05-06 08:23 | 42.94646 | 24.67411 | 18850 ft | 424 kts | 295° |
| 2026-05-06 08:24 | 42.95842 | 24.63792 | 18509 ft | 422 kts | 295° |
| 2026-05-06 08:24 | 42.97048 | 24.60136 | 18129 ft | 421 kts | 295° |
| 2026-05-06 08:24 | 42.98247 | 24.56498 | 17712 ft | 419 kts | 295° |
| 2026-05-06 08:24 | 42.99438 | 24.52877 | 17314 ft | 418 kts | 295° |
| 2026-05-06 08:25 | 43.00620 | 24.49281 | 16914 ft | 416 kts | 295° |
| 2026-05-06 08:25 | 43.01800 | 24.45686 | 16527 ft | 414 kts | 295° |
| 2026-05-06 08:25 | 43.02974 | 24.42102 | 16148 ft | 412 kts | 295° |
| 2026-05-06 08:25 | 43.04142 | 24.38532 | 15773 ft | 410 kts | 295° |
| 2026-05-06 08:26 | 43.05281 | 24.35052 | 15400 ft | 409 kts | 295° |
| 2026-05-06 08:26 | 43.06437 | 24.31510 | 15034 ft | 406 kts | 295° |
| 2026-05-06 08:26 | 43.07574 | 24.27982 | 14667 ft | 405 kts | 292° |
| 2026-05-06 08:26 | 43.08213 | 24.24235 | 14291 ft | 406 kts | 274° |
| 2026-05-06 08:27 | 43.07965 | 24.20447 | 13922 ft | 394 kts | 256° |
| 2026-05-06 08:27 | 43.06919 | 24.17093 | 13523 ft | 375 kts | 237° |
| 2026-05-06 08:27 | 43.05289 | 24.14431 | 13132 ft | 358 kts | 223° |
| 2026-05-06 08:27 | 43.03329 | 24.12449 | 12722 ft | 345 kts | 208° |
| 2026-05-06 08:28 | 43.01168 | 24.11173 | 12343 ft | 332 kts | 200° |
| 2026-05-06 08:28 | 42.99026 | 24.10131 | 11965 ft | 322 kts | 199° |
| 2026-05-06 08:28 | 42.96940 | 24.09155 | 11579 ft | 313 kts | 199° |
| 2026-05-06 08:28 | 42.94932 | 24.08213 | 11207 ft | 304 kts | 200° |
| 2026-05-06 08:29 | 42.92955 | 24.07274 | 10839 ft | 297 kts | 200° |
| 2026-05-06 08:29 | 42.91030 | 24.06350 | 10487 ft | 289 kts | 200° |
| 2026-05-06 08:29 | 42.89177 | 24.05455 | 10164 ft | 277 kts | 200° |
| 2026-05-06 08:29 | 42.87390 | 24.04587 | 9800 ft | 269 kts | 200° |
| 2026-05-06 08:30 | 42.85634 | 24.03733 | 9413 ft | 269 kts | 200° |
| 2026-05-06 08:30 | 42.83860 | 24.02870 | 9032 ft | 272 kts | 200° |
| 2026-05-06 08:30 | 42.82078 | 24.02003 | 8648 ft | 274 kts | 200° |
| 2026-05-06 08:30 | 42.80295 | 24.01135 | 8271 ft | 273 kts | 200° |
| 2026-05-06 08:31 | 42.78525 | 24.00275 | 8001 ft | 269 kts | 200° |
| 2026-05-06 08:31 | 42.76810 | 23.99446 | 7967 ft | 265 kts | 200° |
| 2026-05-06 08:31 | 42.75060 | 23.98615 | 7951 ft | 267 kts | 198° |
| 2026-05-06 08:31 | 42.73255 | 23.98002 | 7959 ft | 268 kts | 188° |
| 2026-05-06 08:32 | 42.71411 | 23.97780 | 7961 ft | 270 kts | 184° |
| 2026-05-06 08:32 | 42.69536 | 23.97591 | 7968 ft | 272 kts | 188° |
| 2026-05-06 08:32 | 42.67796 | 23.96640 | 7694 ft | 274 kts | 220° |
| 2026-05-06 08:32 | 42.66715 | 23.94564 | 7340 ft | 273 kts | 251° |
| 2026-05-06 08:33 | 42.66455 | 23.92040 | 7038 ft | 269 kts | 272° |
| 2026-05-06 08:33 | 42.66607 | 23.89530 | 6750 ft | 267 kts | 274° |
| 2026-05-06 08:33 | 42.66795 | 23.87024 | 6391 ft | 265 kts | 275° |
| 2026-05-06 08:33 | 42.66976 | 23.84569 | 6030 ft | 256 kts | 274° |
| 2026-05-06 08:34 | 42.67134 | 23.82260 | 5973 ft | 241 kts | 274° |
| 2026-05-06 08:34 | 42.67429 | 23.77716 | 5987 ft | 240 kts | 274° |
| 2026-05-06 08:34 | 42.67573 | 23.75454 | 5973 ft | 241 kts | 274° |
| 2026-05-06 08:35 | 42.67713 | 23.73212 | 5911 ft | 235 kts | 274° |
| 2026-05-06 08:35 | 42.67847 | 23.71033 | 5606 ft | 227 kts | 274° |
| 2026-05-06 08:35 | 42.68005 | 23.68969 | 5318 ft | 213 kts | 275° |
| 2026-05-06 08:35 | 42.68138 | 23.67010 | 5039 ft | 202 kts | 274° |
| 2026-05-06 08:36 | 42.68244 | 23.65190 | 4783 ft | 192 kts | 274° |
| 2026-05-06 08:36 | 42.68347 | 23.63463 | 4559 ft | 173 kts | 276° |
| 2026-05-06 08:36 | 42.68440 | 23.61903 | 4320 ft | 157 kts | 274° |
| 2026-05-06 08:36 | 42.68519 | 23.60483 | 4119 ft | 146 kts | 274° |
| 2026-05-06 08:37 | 42.68598 | 23.59141 | 3997 ft | 143 kts | 275° |
| 2026-05-06 08:37 | 42.68678 | 23.57819 | 3752 ft | 135 kts | 275° |
| 2026-05-06 08:37 | 42.68752 | 23.56590 | 3582 ft | 129 kts | 275° |
| 2026-05-06 08:37 | 42.68823 | 23.55388 | 3424 ft | 128 kts | 275° |
| 2026-05-06 08:38 | 42.68896 | 23.54172 | 3245 ft | 129 kts | 275° |
| 2026-05-06 08:38 | 42.68969 | 23.52959 | 3086 ft | 128 kts | 275° |
| 2026-05-06 08:38 | 42.69040 | 23.51747 | 2914 ft | 129 kts | 275° |
| 2026-05-06 08:38 | 42.69113 | 23.50547 | 2752 ft | 127 kts | 275° |
| 2026-05-06 08:39 | 42.69185 | 23.49353 | 2580 ft | 127 kts | 275° |
| 2026-05-06 08:39 | 42.69256 | 23.48160 | 2420 ft | 126 kts | 275° |
| 2026-05-06 08:39 | 42.69328 | 23.46979 | 2252 ft | 126 kts | 275° |
| 2026-05-06 08:39 | 42.69401 | 23.45791 | 2080 ft | 126 kts | 275° |
| 2026-05-06 08:40 | 42.69475 | 23.44612 | 1923 ft | 125 kts | 275° |
| 2026-05-06 08:40 | 42.69547 | 23.43434 | 1764 ft | 125 kts | 275° |
| 2026-05-06 08:40 | 42.69605 | 23.42439 | 1749 ft | 81 kts | 275° |
| 2026-05-06 08:40 | 42.69637 | 23.41889 | 1747 ft | 47 kts | 273° |
| 2026-05-06 08:41 | 42.69595 | 23.41596 | 1745 ft | 15 kts | 246° |
| 2026-05-06 08:41 | 42.69561 | 23.41496 | 1742 ft | 10 kts | 245° |
| 2026-05-06 08:41 | 42.69532 | 23.41412 | 1741 ft | 10 kts | 245° |
| 2026-05-06 08:41 | 42.69503 | 23.41325 | 1746 ft | 11 kts | 248° |
| 2026-05-06 08:42 | 42.69470 | 23.41230 | 1744 ft | 11 kts | 225° |
| 2026-05-06 08:42 | 42.69398 | 23.41196 | 1749 ft | 11 kts | 191° |
| 2026-05-06 08:42 | 42.69321 | 23.41174 | 1747 ft | 11 kts | 192° |
| 2026-05-06 08:42 | 42.69241 | 23.41150 | 1749 ft | 13 kts | 193° |
| 2026-05-06 08:43 | 42.69157 | 23.41123 | 1749 ft | 12 kts | 204° |
| 2026-05-06 08:43 | 42.69112 | 23.41027 | 1743 ft | 12 kts | 251° |
| 2026-05-06 08:43 | 42.69086 | 23.40913 | 1746 ft | 14 kts | 251° |
| 2026-05-06 08:43 | 42.69059 | 23.40784 | 1745 ft | 14 kts | 266° |
| 2026-05-06 08:44 | 42.69080 | 23.40654 | 1746 ft | 13 kts | 286° |
| 2026-05-06 08:44 | 42.69073 | 23.40592 | 1742 ft | 8 kts | 206° |
| 2026-05-06 08:44 | 42.69020 | 23.40570 | 1743 ft | 0 kts | 195° |